sensor_id;sensor_type;location;lat;lon;timestamp;temperature;humidity
8896;DHT22;4484;48.928;10.066;2022-12-18T00:01:26;-9.50;99.90
8896;DHT22;4484;48.928;10.066;2022-12-18T00:03:54;-9.50;99.90
8896;DHT22;4484;48.928;10.066;2022-12-18T00:06:24;-9.50;99.90
8896;DHT22;4484;48.928;10.066;2022-12-18T00:08:51;-9.50;99.90
8896;DHT22;4484;48.928;10.066;2022-12-18T00:11:19;-9.60;99.90
8896;DHT22;4484;48.928;10.066;2022-12-18T00:13:47;-9.60;99.90
8896;DHT22;4484;48.928;10.066;2022-12-18T00:16:20;-9.60;99.90
8896;DHT22;4484;48.928;10.066;2022-12-18T00:18:49;-9.60;99.90
8896;DHT22;4484;48.928;10.066;2022-12-18T00:21:17;-9.70;99.90
8896;DHT22;4484;48.928;10.066;2022-12-18T00:23:45;-9.70;99.90
8896;DHT22;4484;48.928;10.066;2022-12-18T00:26:19;-9.70;99.90
8896;DHT22;4484;48.928;10.066;2022-12-18T00:28:46;-9.70;99.90
8896;DHT22;4484;48.928;10.066;2022-12-18T00:31:16;-9.80;99.90
8896;DHT22;4484;48.928;10.066;2022-12-18T00:33:44;-9.80;99.90
8896;DHT22;4484;48.928;10.066;2022-12-18T00:36:15;-9.90;99.90
8896;DHT22;4484;48.928;10.066;2022-12-18T00:38:43;-9.90;99.90
8896;DHT22;4484;48.928;10.066;2022-12-18T00:41:11;-9.90;99.90
8896;DHT22;4484;48.928;10.066;2022-12-18T00:43:39;-10.00;99.90
8896;DHT22;4484;48.928;10.066;2022-12-18T00:46:07;-10.00;99.90
8896;DHT22;4484;48.928;10.066;2022-12-18T00:48:35;-10.10;99.90
8896;DHT22;4484;48.928;10.066;2022-12-18T00:51:02;-10.10;99.90
8896;DHT22;4484;48.928;10.066;2022-12-18T00:53:29;-10.20;99.90
8896;DHT22;4484;48.928;10.066;2022-12-18T00:55:56;-10.20;99.90
8896;DHT22;4484;48.928;10.066;2022-12-18T00:58:22;-10.30;99.90
8896;DHT22;4484;48.928;10.066;2022-12-18T01:00:49;-10.30;99.90
8896;DHT22;4484;48.928;10.066;2022-12-18T01:03:16;-10.30;99.90
8896;DHT22;4484;48.928;10.066;2022-12-18T01:05:43;-10.30;99.90
8896;DHT22;4484;48.928;10.066;2022-12-18T01:08:13;-10.30;99.90
8896;DHT22;4484;48.928;10.066;2022-12-18T01:10:42;-10.40;99.90
8896;DHT22;4484;48.928;10.066;2022-12-18T01:13:10;-10.40;99.90
8896;DHT22;4484;48.928;10.066;2022-12-18T01:15:37;-10.40;99.90
8896;DHT22;4484;48.928;10.066;2022-12-18T01:18:04;-10.50;99.90
8896;DHT22;4484;48.928;10.066;2022-12-18T01:20:32;-10.50;99.90
8896;DHT22;4484;48.928;10.066;2022-12-18T01:22:59;-10.40;99.90
8896;DHT22;4484;48.928;10.066;2022-12-18T01:25:26;-10.50;99.90
8896;DHT22;4484;48.928;10.066;2022-12-18T01:27:53;-10.50;99.90
8896;DHT22;4484;48.928;10.066;2022-12-18T01:30:20;-10.50;99.90
8896;DHT22;4484;48.928;10.066;2022-12-18T01:32:47;-10.50;99.90
8896;DHT22;4484;48.928;10.066;2022-12-18T01:35:14;-10.60;99.90
8896;DHT22;4484;48.928;10.066;2022-12-18T01:37:41;-10.50;99.90
8896;DHT22;4484;48.928;10.066;2022-12-18T01:40:08;-10.60;99.90
8896;DHT22;4484;48.928;10.066;2022-12-18T01:42:35;-10.60;99.90
8896;DHT22;4484;48.928;10.066;2022-12-18T01:47:48;-10.60;99.90
8896;DHT22;4484;48.928;10.066;2022-12-18T01:50:27;-10.60;99.90
8896;DHT22;4484;48.928;10.066;2022-12-18T01:53:03;-10.60;99.90
8896;DHT22;4484;48.928;10.066;2022-12-18T01:55:35;-10.60;99.90
8896;DHT22;4484;48.928;10.066;2022-12-18T01:58:03;-10.60;99.90
8896;DHT22;4484;48.928;10.066;2022-12-18T02:00:31;-10.50;99.90
8896;DHT22;4484;48.928;10.066;2022-12-18T02:02:58;-10.60;99.90
8896;DHT22;4484;48.928;10.066;2022-12-18T02:05:39;-10.50;99.90
8896;DHT22;4484;48.928;10.066;2022-12-18T02:08:28;-10.50;99.90
8896;DHT22;4484;48.928;10.066;2022-12-18T02:18:57;-10.50;99.90
8896;DHT22;4484;48.928;10.066;2022-12-18T02:21:34;-10.50;99.90
8896;DHT22;4484;48.928;10.066;2022-12-18T02:26:55;-10.50;99.90
8896;DHT22;4484;48.928;10.066;2022-12-18T02:29:29;-10.50;99.90
8896;DHT22;4484;48.928;10.066;2022-12-18T02:31:59;-10.50;99.90
8896;DHT22;4484;48.928;10.066;2022-12-18T02:34:29;-10.50;99.90
8896;DHT22;4484;48.928;10.066;2022-12-18T02:36:59;-10.50;99.90
8896;DHT22;4484;48.928;10.066;2022-12-18T02:39:29;-10.60;99.90
8896;DHT22;4484;48.928;10.066;2022-12-18T02:42:02;-10.50;99.90
8896;DHT22;4484;48.928;10.066;2022-12-18T02:44:35;-10.60;99.90
8896;DHT22;4484;48.928;10.066;2022-12-18T02:47:10;-10.50;99.90
8896;DHT22;4484;48.928;10.066;2022-12-18T02:59:19;-10.50;99.90
8896;DHT22;4484;48.928;10.066;2022-12-18T03:02:01;-10.50;99.90
8896;DHT22;4484;48.928;10.066;2022-12-18T03:08:07;-10.60;99.90
8896;DHT22;4484;48.928;10.066;2022-12-18T03:10:44;-10.50;99.90
8896;DHT22;4484;48.928;10.066;2022-12-18T03:13:21;-10.50;99.90
8896;DHT22;4484;48.928;10.066;2022-12-18T03:15:52;-10.60;99.90
8896;DHT22;4484;48.928;10.066;2022-12-18T03:18:30;-10.60;99.90
8896;DHT22;4484;48.928;10.066;2022-12-18T03:21:03;-10.60;99.90
8896;DHT22;4484;48.928;10.066;2022-12-18T03:23:39;-10.60;99.90
8896;DHT22;4484;48.928;10.066;2022-12-18T03:26:11;-10.60;99.90
8896;DHT22;4484;48.928;10.066;2022-12-18T03:28:46;-10.60;99.90
8896;DHT22;4484;48.928;10.066;2022-12-18T03:31:14;-10.60;99.90
8896;DHT22;4484;48.928;10.066;2022-12-18T03:36:21;-10.60;99.90
8896;DHT22;4484;48.928;10.066;2022-12-18T03:38:49;-10.60;99.90
8896;DHT22;4484;48.928;10.066;2022-12-18T03:41:33;-10.60;99.90
8896;DHT22;4484;48.928;10.066;2022-12-18T03:44:29;-10.60;99.90
8896;DHT22;4484;48.928;10.066;2022-12-18T03:54:53;-10.60;99.90
8896;DHT22;4484;48.928;10.066;2022-12-18T03:57:25;-10.60;99.90
8896;DHT22;4484;48.928;10.066;2022-12-18T03:59:59;-10.60;99.90
8896;DHT22;4484;48.928;10.066;2022-12-18T04:02:44;-10.60;99.90
8896;DHT22;4484;48.928;10.066;2022-12-18T04:05:20;-10.70;99.90
8896;DHT22;4484;48.928;10.066;2022-12-18T04:07:49;-10.70;99.90
8896;DHT22;4484;48.928;10.066;2022-12-18T04:10:17;-10.60;99.90
8896;DHT22;4484;48.928;10.066;2022-12-18T04:12:45;-10.70;99.90
8896;DHT22;4484;48.928;10.066;2022-12-18T04:15:14;-10.70;99.90
8896;DHT22;4484;48.928;10.066;2022-12-18T04:17:51;-10.70;99.90
8896;DHT22;4484;48.928;10.066;2022-12-18T04:20:22;-10.80;99.90
8896;DHT22;4484;48.928;10.066;2022-12-18T04:22:49;-10.80;99.90
8896;DHT22;4484;48.928;10.066;2022-12-18T04:25:18;-10.80;99.90
8896;DHT22;4484;48.928;10.066;2022-12-18T04:28:04;-10.80;99.90
8896;DHT22;4484;48.928;10.066;2022-12-18T04:30:32;-10.80;99.90
8896;DHT22;4484;48.928;10.066;2022-12-18T04:32:59;-10.80;99.90
8896;DHT22;4484;48.928;10.066;2022-12-18T04:35:28;-10.80;99.90
8896;DHT22;4484;48.928;10.066;2022-12-18T04:37:56;-10.90;99.90
8896;DHT22;4484;48.928;10.066;2022-12-18T04:40:23;-10.90;99.90
8896;DHT22;4484;48.928;10.066;2022-12-18T04:42:51;-10.80;99.90
8896;DHT22;4484;48.928;10.066;2022-12-18T04:45:18;-10.80;99.90
8896;DHT22;4484;48.928;10.066;2022-12-18T04:47:46;-10.90;99.90
8896;DHT22;4484;48.928;10.066;2022-12-18T04:50:13;-10.90;99.90
8896;DHT22;4484;48.928;10.066;2022-12-18T04:52:40;-10.80;99.90
8896;DHT22;4484;48.928;10.066;2022-12-18T04:55:08;-10.80;99.90
8896;DHT22;4484;48.928;10.066;2022-12-18T04:57:35;-10.80;99.90
8896;DHT22;4484;48.928;10.066;2022-12-18T05:00:03;-10.70;99.90
8896;DHT22;4484;48.928;10.066;2022-12-18T05:02:30;-10.70;99.90
8896;DHT22;4484;48.928;10.066;2022-12-18T05:04:57;-10.70;99.90
8896;DHT22;4484;48.928;10.066;2022-12-18T05:07:25;-10.70;99.90
8896;DHT22;4484;48.928;10.066;2022-12-18T05:09:52;-10.70;99.90
8896;DHT22;4484;48.928;10.066;2022-12-18T05:12:19;-10.70;99.90
8896;DHT22;4484;48.928;10.066;2022-12-18T05:14:46;-10.60;99.90
8896;DHT22;4484;48.928;10.066;2022-12-18T05:17:13;-10.60;99.90
8896;DHT22;4484;48.928;10.066;2022-12-18T05:19:40;-10.60;99.90
8896;DHT22;4484;48.928;10.066;2022-12-18T05:22:08;-10.60;99.90
8896;DHT22;4484;48.928;10.066;2022-12-18T05:24:35;-10.50;99.90
8896;DHT22;4484;48.928;10.066;2022-12-18T05:27:03;-10.50;99.90
8896;DHT22;4484;48.928;10.066;2022-12-18T05:29:30;-10.40;99.90
8896;DHT22;4484;48.928;10.066;2022-12-18T05:31:57;-10.30;99.90
8896;DHT22;4484;48.928;10.066;2022-12-18T05:34:24;-10.30;99.90
8896;DHT22;4484;48.928;10.066;2022-12-18T05:36:51;-10.20;99.90
8896;DHT22;4484;48.928;10.066;2022-12-18T05:39:18;-10.20;99.90
8896;DHT22;4484;48.928;10.066;2022-12-18T05:41:45;-10.20;99.90
8896;DHT22;4484;48.928;10.066;2022-12-18T05:44:12;-10.20;99.90
8896;DHT22;4484;48.928;10.066;2022-12-18T05:46:40;-10.20;99.90
8896;DHT22;4484;48.928;10.066;2022-12-18T05:49:07;-10.10;99.90
8896;DHT22;4484;48.928;10.066;2022-12-18T05:51:35;-10.10;99.90
8896;DHT22;4484;48.928;10.066;2022-12-18T05:54:02;-10.10;99.90
8896;DHT22;4484;48.928;10.066;2022-12-18T05:56:28;-10.10;99.90
8896;DHT22;4484;48.928;10.066;2022-12-18T05:58:55;-10.10;99.90
8896;DHT22;4484;48.928;10.066;2022-12-18T06:01:25;-10.10;99.90
8896;DHT22;4484;48.928;10.066;2022-12-18T06:03:53;-10.10;99.90
8896;DHT22;4484;48.928;10.066;2022-12-18T06:06:28;-10.10;99.90
8896;DHT22;4484;48.928;10.066;2022-12-18T06:08:56;-10.10;99.90
8896;DHT22;4484;48.928;10.066;2022-12-18T06:11:25;-10.10;99.90
8896;DHT22;4484;48.928;10.066;2022-12-18T06:13:54;-10.00;99.90
8896;DHT22;4484;48.928;10.066;2022-12-18T06:16:25;-10.00;99.90
8896;DHT22;4484;48.928;10.066;2022-12-18T06:18:57;-10.00;99.90
8896;DHT22;4484;48.928;10.066;2022-12-18T06:21:26;-9.90;99.90
8896;DHT22;4484;48.928;10.066;2022-12-18T06:23:53;-9.90;99.90
8896;DHT22;4484;48.928;10.066;2022-12-18T06:26:21;-9.80;99.90
8896;DHT22;4484;48.928;10.066;2022-12-18T06:28:54;-9.80;99.90
8896;DHT22;4484;48.928;10.066;2022-12-18T06:31:20;-9.80;99.90
8896;DHT22;4484;48.928;10.066;2022-12-18T06:33:48;-9.70;99.90
8896;DHT22;4484;48.928;10.066;2022-12-18T06:36:15;-9.70;99.90
8896;DHT22;4484;48.928;10.066;2022-12-18T06:38:43;-9.60;99.90
8896;DHT22;4484;48.928;10.066;2022-12-18T06:41:16;-9.50;99.90
8896;DHT22;4484;48.928;10.066;2022-12-18T06:43:44;-9.50;99.90
8896;DHT22;4484;48.928;10.066;2022-12-18T06:46:11;-9.40;99.90
8896;DHT22;4484;48.928;10.066;2022-12-18T06:48:38;-9.40;99.90
8896;DHT22;4484;48.928;10.066;2022-12-18T06:51:05;-9.30;99.90
8896;DHT22;4484;48.928;10.066;2022-12-18T06:53:33;-9.30;99.90
8896;DHT22;4484;48.928;10.066;2022-12-18T06:56:02;-9.20;99.90
8896;DHT22;4484;48.928;10.066;2022-12-18T06:58:35;-9.10;99.90
8896;DHT22;4484;48.928;10.066;2022-12-18T07:01:06;-9.10;99.90
8896;DHT22;4484;48.928;10.066;2022-12-18T07:03:33;-9.00;99.90
8896;DHT22;4484;48.928;10.066;2022-12-18T07:06:01;-9.00;99.90
8896;DHT22;4484;48.928;10.066;2022-12-18T07:08:29;-9.00;99.90
8896;DHT22;4484;48.928;10.066;2022-12-18T07:10:56;-9.00;99.90
8896;DHT22;4484;48.928;10.066;2022-12-18T07:13:24;-9.00;99.90
8896;DHT22;4484;48.928;10.066;2022-12-18T07:15:50;-8.90;99.90
8896;DHT22;4484;48.928;10.066;2022-12-18T07:18:17;-8.90;99.90
8896;DHT22;4484;48.928;10.066;2022-12-18T07:20:44;-8.90;99.90
8896;DHT22;4484;48.928;10.066;2022-12-18T07:23:13;-8.80;99.90
8896;DHT22;4484;48.928;10.066;2022-12-18T07:25:40;-8.70;99.90
8896;DHT22;4484;48.928;10.066;2022-12-18T07:28:07;-8.70;99.90
8896;DHT22;4484;48.928;10.066;2022-12-18T07:30:41;-8.60;99.90
8896;DHT22;4484;48.928;10.066;2022-12-18T07:33:08;-8.60;99.90
8896;DHT22;4484;48.928;10.066;2022-12-18T07:35:34;-8.50;99.90
8896;DHT22;4484;48.928;10.066;2022-12-18T07:38:02;-8.40;99.90
8896;DHT22;4484;48.928;10.066;2022-12-18T07:40:28;-8.40;99.90
8896;DHT22;4484;48.928;10.066;2022-12-18T07:42:55;-8.30;99.90
8896;DHT22;4484;48.928;10.066;2022-12-18T07:45:22;-8.20;99.90
8896;DHT22;4484;48.928;10.066;2022-12-18T07:47:49;-8.20;99.90
8896;DHT22;4484;48.928;10.066;2022-12-18T07:50:16;-8.10;99.90
8896;DHT22;4484;48.928;10.066;2022-12-18T07:52:43;-8.10;99.90
8896;DHT22;4484;48.928;10.066;2022-12-18T07:55:10;-8.00;99.90
8896;DHT22;4484;48.928;10.066;2022-12-18T07:57:36;-7.90;99.90
8896;DHT22;4484;48.928;10.066;2022-12-18T08:00:23;-7.80;99.90
8896;DHT22;4484;48.928;10.066;2022-12-18T08:02:50;-7.70;99.90
8896;DHT22;4484;48.928;10.066;2022-12-18T08:05:17;-7.60;99.90
8896;DHT22;4484;48.928;10.066;2022-12-18T08:07:44;-7.60;99.90
8896;DHT22;4484;48.928;10.066;2022-12-18T08:10:11;-7.50;99.90
8896;DHT22;4484;48.928;10.066;2022-12-18T08:12:38;-7.40;99.90
8896;DHT22;4484;48.928;10.066;2022-12-18T08:15:06;-7.30;99.90
8896;DHT22;4484;48.928;10.066;2022-12-18T08:17:32;-7.30;99.90
8896;DHT22;4484;48.928;10.066;2022-12-18T08:20:00;-7.20;99.90
8896;DHT22;4484;48.928;10.066;2022-12-18T08:22:27;-7.20;99.90
8896;DHT22;4484;48.928;10.066;2022-12-18T08:24:54;-7.10;99.90
8896;DHT22;4484;48.928;10.066;2022-12-18T08:27:21;-7.00;99.90
8896;DHT22;4484;48.928;10.066;2022-12-18T08:29:57;-6.90;99.90
8896;DHT22;4484;48.928;10.066;2022-12-18T08:32:25;-6.80;99.90
8896;DHT22;4484;48.928;10.066;2022-12-18T08:34:53;-6.70;99.90
8896;DHT22;4484;48.928;10.066;2022-12-18T08:37:20;-6.60;99.90
8896;DHT22;4484;48.928;10.066;2022-12-18T08:39:46;-6.60;99.90
8896;DHT22;4484;48.928;10.066;2022-12-18T08:42:13;-6.50;99.90
8896;DHT22;4484;48.928;10.066;2022-12-18T08:44:58;-6.40;99.90
8896;DHT22;4484;48.928;10.066;2022-12-18T08:47:25;-6.20;99.90
8896;DHT22;4484;48.928;10.066;2022-12-18T08:49:52;-6.10;99.90
8896;DHT22;4484;48.928;10.066;2022-12-18T08:52:19;-6.00;99.90
8896;DHT22;4484;48.928;10.066;2022-12-18T08:54:46;-5.90;99.90
8896;DHT22;4484;48.928;10.066;2022-12-18T08:57:13;-5.90;99.90
8896;DHT22;4484;48.928;10.066;2022-12-18T08:59:40;-5.90;99.90
8896;DHT22;4484;48.928;10.066;2022-12-18T09:02:10;-5.90;99.90
8896;DHT22;4484;48.928;10.066;2022-12-18T09:04:43;-5.90;99.90
8896;DHT22;4484;48.928;10.066;2022-12-18T09:07:22;-5.80;99.90
8896;DHT22;4484;48.928;10.066;2022-12-18T09:09:49;-5.80;99.90
8896;DHT22;4484;48.928;10.066;2022-12-18T09:12:15;-5.70;99.90
8896;DHT22;4484;48.928;10.066;2022-12-18T09:14:42;-5.60;99.90
8896;DHT22;4484;48.928;10.066;2022-12-18T09:17:09;-5.60;99.90
8896;DHT22;4484;48.928;10.066;2022-12-18T09:19:36;-5.50;99.90
8896;DHT22;4484;48.928;10.066;2022-12-18T09:22:03;-5.50;99.90
8896;DHT22;4484;48.928;10.066;2022-12-18T09:24:30;-5.40;99.90
8896;DHT22;4484;48.928;10.066;2022-12-18T09:26:57;-5.40;99.90
8896;DHT22;4484;48.928;10.066;2022-12-18T09:29:24;-5.30;99.90
8896;DHT22;4484;48.928;10.066;2022-12-18T09:31:51;-5.20;99.90
8896;DHT22;4484;48.928;10.066;2022-12-18T09:34:18;-5.00;99.90
8896;DHT22;4484;48.928;10.066;2022-12-18T09:36:48;-5.00;99.90
8896;DHT22;4484;48.928;10.066;2022-12-18T09:39:16;-4.90;99.90
8896;DHT22;4484;48.928;10.066;2022-12-18T09:41:52;-4.70;99.90
8896;DHT22;4484;48.928;10.066;2022-12-18T09:44:40;-4.50;99.90
8896;DHT22;4484;48.928;10.066;2022-12-18T09:49:55;-3.70;99.90
8896;DHT22;4484;48.928;10.066;2022-12-18T09:52:35;-3.30;99.90
8896;DHT22;4484;48.928;10.066;2022-12-18T09:55:24;-3.00;99.90
8896;DHT22;4484;48.928;10.066;2022-12-18T09:58:15;-2.50;99.90
8896;DHT22;4484;48.928;10.066;2022-12-18T10:00:43;-2.10;99.90
8896;DHT22;4484;48.928;10.066;2022-12-18T10:03:15;-1.70;99.90
8896;DHT22;4484;48.928;10.066;2022-12-18T10:05:46;-1.40;99.90
8896;DHT22;4484;48.928;10.066;2022-12-18T10:20:16;0.90;99.90
8896;DHT22;4484;48.928;10.066;2022-12-18T10:22:55;1.30;99.90
8896;DHT22;4484;48.928;10.066;2022-12-18T10:25:50;1.60;99.90
8896;DHT22;4484;48.928;10.066;2022-12-18T10:28:19;2.00;99.90
8896;DHT22;4484;48.928;10.066;2022-12-18T10:30:46;2.60;99.90
8896;DHT22;4484;48.928;10.066;2022-12-18T10:33:19;3.00;99.90
8896;DHT22;4484;48.928;10.066;2022-12-18T10:35:48;3.20;99.90
8896;DHT22;4484;48.928;10.066;2022-12-18T10:40:55;3.60;99.90
8896;DHT22;4484;48.928;10.066;2022-12-18T10:43:35;3.60;99.90
8896;DHT22;4484;48.928;10.066;2022-12-18T10:51:34;4.40;99.90
8896;DHT22;4484;48.928;10.066;2022-12-18T10:56:35;4.80;99.90
8896;DHT22;4484;48.928;10.066;2022-12-18T10:59:07;4.70;99.90
8896;DHT22;4484;48.928;10.066;2022-12-18T11:04:24;4.80;99.90
8896;DHT22;4484;48.928;10.066;2022-12-18T11:09:22;5.50;99.90
8896;DHT22;4484;48.928;10.066;2022-12-18T11:11:51;5.70;96.60
8896;DHT22;4484;48.928;10.066;2022-12-18T11:14:32;5.10;96.40
8896;DHT22;4484;48.928;10.066;2022-12-18T11:17:00;4.90;98.70
8896;DHT22;4484;48.928;10.066;2022-12-18T11:19:58;5.00;98.40
8896;DHT22;4484;48.928;10.066;2022-12-18T11:22:30;5.50;99.50
8896;DHT22;4484;48.928;10.066;2022-12-18T11:24:59;5.70;96.30
8896;DHT22;4484;48.928;10.066;2022-12-18T11:27:55;5.70;96.30
8896;DHT22;4484;48.928;10.066;2022-12-18T11:30:32;5.50;94.90
8896;DHT22;4484;48.928;10.066;2022-12-18T11:33:13;5.40;96.70
8896;DHT22;4484;48.928;10.066;2022-12-18T11:35:51;5.20;95.00
8896;DHT22;4484;48.928;10.066;2022-12-18T11:43:44;4.40;95.70
8896;DHT22;4484;48.928;10.066;2022-12-18T11:46:15;4.20;95.60
8896;DHT22;4484;48.928;10.066;2022-12-18T11:48:48;3.70;96.50
8896;DHT22;4484;48.928;10.066;2022-12-18T11:51:28;3.50;97.40
8896;DHT22;4484;48.928;10.066;2022-12-18T11:53:56;3.20;97.80
8896;DHT22;4484;48.928;10.066;2022-12-18T11:56:35;2.90;99.00
8896;DHT22;4484;48.928;10.066;2022-12-18T12:12:58;2.90;99.70
8896;DHT22;4484;48.928;10.066;2022-12-18T12:18:13;2.50;98.80
8896;DHT22;4484;48.928;10.066;2022-12-18T12:20:57;1.90;99.90
8896;DHT22;4484;48.928;10.066;2022-12-18T12:31:53;1.50;99.90
8896;DHT22;4484;48.928;10.066;2022-12-18T12:34:36;1.30;99.90
8896;DHT22;4484;48.928;10.066;2022-12-18T12:37:19;1.50;99.90
8896;DHT22;4484;48.928;10.066;2022-12-18T12:39:52;1.50;99.90
8896;DHT22;4484;48.928;10.066;2022-12-18T12:42:35;1.60;99.90
8896;DHT22;4484;48.928;10.066;2022-12-18T12:45:33;1.40;99.90
8896;DHT22;4484;48.928;10.066;2022-12-18T12:48:02;1.10;99.90
8896;DHT22;4484;48.928;10.066;2022-12-18T12:50:34;0.80;99.90
8896;DHT22;4484;48.928;10.066;2022-12-18T12:53:07;0.60;99.90
8896;DHT22;4484;48.928;10.066;2022-12-18T12:55:39;0.40;99.90
8896;DHT22;4484;48.928;10.066;2022-12-18T12:58:31;0.30;99.90
8896;DHT22;4484;48.928;10.066;2022-12-18T13:09:04;-0.60;99.90
8896;DHT22;4484;48.928;10.066;2022-12-18T13:11:41;-0.80;99.90
8896;DHT22;4484;48.928;10.066;2022-12-18T13:20:08;-1.50;99.90
8896;DHT22;4484;48.928;10.066;2022-12-18T13:22:48;-1.50;99.90
8896;DHT22;4484;48.928;10.066;2022-12-18T13:25:37;-1.60;99.90
8896;DHT22;4484;48.928;10.066;2022-12-18T13:28:08;-1.60;99.90
8896;DHT22;4484;48.928;10.066;2022-12-18T13:30:49;-1.70;99.90
8896;DHT22;4484;48.928;10.066;2022-12-18T13:33:46;-1.70;99.90
8896;DHT22;4484;48.928;10.066;2022-12-18T13:36:37;-1.80;99.90
8896;DHT22;4484;48.928;10.066;2022-12-18T13:42:31;-1.80;99.90
8896;DHT22;4484;48.928;10.066;2022-12-18T13:45:40;-1.90;99.90
8896;DHT22;4484;48.928;10.066;2022-12-18T13:48:17;-2.10;99.90
8896;DHT22;4484;48.928;10.066;2022-12-18T13:50:49;-2.40;99.90
8896;DHT22;4484;48.928;10.066;2022-12-18T13:53:21;-2.50;99.90
8896;DHT22;4484;48.928;10.066;2022-12-18T13:55:51;-2.60;99.90
8896;DHT22;4484;48.928;10.066;2022-12-18T13:58:18;-2.70;99.90
8896;DHT22;4484;48.928;10.066;2022-12-18T14:00:46;-2.80;99.90
8896;DHT22;4484;48.928;10.066;2022-12-18T14:03:28;-3.00;99.90
8896;DHT22;4484;48.928;10.066;2022-12-18T14:06:02;-3.10;99.90
8896;DHT22;4484;48.928;10.066;2022-12-18T14:08:40;-3.20;99.90
8896;DHT22;4484;48.928;10.066;2022-12-18T14:11:21;-3.20;99.90
8896;DHT22;4484;48.928;10.066;2022-12-18T14:13:52;-3.30;99.90
8896;DHT22;4484;48.928;10.066;2022-12-18T14:16:20;-3.20;99.90
8896;DHT22;4484;48.928;10.066;2022-12-18T14:18:53;-3.20;99.90
8896;DHT22;4484;48.928;10.066;2022-12-18T14:21:38;-3.20;99.90
8896;DHT22;4484;48.928;10.066;2022-12-18T14:26:35;-3.20;99.90
8896;DHT22;4484;48.928;10.066;2022-12-18T14:32:09;-3.20;99.90
8896;DHT22;4484;48.928;10.066;2022-12-18T14:34:53;-3.20;99.90
8896;DHT22;4484;48.928;10.066;2022-12-18T14:37:23;-3.20;99.90
8896;DHT22;4484;48.928;10.066;2022-12-18T14:39:57;-3.30;99.90
8896;DHT22;4484;48.928;10.066;2022-12-18T14:42:28;-3.40;99.90
8896;DHT22;4484;48.928;10.066;2022-12-18T14:48:15;-3.80;99.90
8896;DHT22;4484;48.928;10.066;2022-12-18T14:53:42;-4.10;99.90
8896;DHT22;4484;48.928;10.066;2022-12-18T14:56:23;-4.20;99.90
8896;DHT22;4484;48.928;10.066;2022-12-18T15:01:28;-4.40;99.90
8896;DHT22;4484;48.928;10.066;2022-12-18T15:04:00;-4.40;99.90
8896;DHT22;4484;48.928;10.066;2022-12-18T15:06:34;-4.40;99.90
8896;DHT22;4484;48.928;10.066;2022-12-18T15:09:05;-4.50;99.90
8896;DHT22;4484;48.928;10.066;2022-12-18T15:11:47;-4.60;99.90
8896;DHT22;4484;48.928;10.066;2022-12-18T15:14:24;-4.70;99.90
8896;DHT22;4484;48.928;10.066;2022-12-18T15:16:59;-4.80;99.90
8896;DHT22;4484;48.928;10.066;2022-12-18T15:19:37;-4.80;99.90
8896;DHT22;4484;48.928;10.066;2022-12-18T15:22:17;-4.90;99.90
8896;DHT22;4484;48.928;10.066;2022-12-18T15:24:45;-5.00;99.90
8896;DHT22;4484;48.928;10.066;2022-12-18T15:27:22;-5.10;99.90
8896;DHT22;4484;48.928;10.066;2022-12-18T15:30:20;-5.20;99.90
8896;DHT22;4484;48.928;10.066;2022-12-18T15:32:49;-5.30;99.90
8896;DHT22;4484;48.928;10.066;2022-12-18T15:35:24;-5.50;99.90
8896;DHT22;4484;48.928;10.066;2022-12-18T15:37:52;-5.50;99.90
8896;DHT22;4484;48.928;10.066;2022-12-18T15:40:23;-5.60;99.90
8896;DHT22;4484;48.928;10.066;2022-12-18T15:42:53;-5.70;99.90
8896;DHT22;4484;48.928;10.066;2022-12-18T15:45:39;-5.80;99.90
8896;DHT22;4484;48.928;10.066;2022-12-18T15:48:20;-5.90;99.90
8896;DHT22;4484;48.928;10.066;2022-12-18T15:50:50;-5.90;99.90
8896;DHT22;4484;48.928;10.066;2022-12-18T15:53:17;-5.90;99.90
8896;DHT22;4484;48.928;10.066;2022-12-18T15:55:45;-6.00;99.90
8896;DHT22;4484;48.928;10.066;2022-12-18T15:58:30;-6.10;99.90
8896;DHT22;4484;48.928;10.066;2022-12-18T16:00:59;-6.10;99.90
8896;DHT22;4484;48.928;10.066;2022-12-18T16:03:27;-6.20;99.90
8896;DHT22;4484;48.928;10.066;2022-12-18T16:05:55;-6.20;99.90
8896;DHT22;4484;48.928;10.066;2022-12-18T16:08:24;-6.30;99.90
8896;DHT22;4484;48.928;10.066;2022-12-18T16:10:51;-6.30;99.90
8896;DHT22;4484;48.928;10.066;2022-12-18T16:13:19;-6.30;99.90
8896;DHT22;4484;48.928;10.066;2022-12-18T16:15:46;-6.30;99.90
8896;DHT22;4484;48.928;10.066;2022-12-18T16:18:14;-6.30;99.90
8896;DHT22;4484;48.928;10.066;2022-12-18T16:20:41;-6.30;99.90
8896;DHT22;4484;48.928;10.066;2022-12-18T16:23:08;-6.40;99.90
8896;DHT22;4484;48.928;10.066;2022-12-18T16:25:35;-6.30;99.90
8896;DHT22;4484;48.928;10.066;2022-12-18T16:28:02;-6.40;99.90
8896;DHT22;4484;48.928;10.066;2022-12-18T16:30:30;-6.40;99.90
8896;DHT22;4484;48.928;10.066;2022-12-18T16:33:04;-6.30;99.90
8896;DHT22;4484;48.928;10.066;2022-12-18T16:35:33;-6.40;99.90
8896;DHT22;4484;48.928;10.066;2022-12-18T16:38:00;-6.30;99.90
8896;DHT22;4484;48.928;10.066;2022-12-18T16:40:27;-6.40;99.90
8896;DHT22;4484;48.928;10.066;2022-12-18T16:42:54;-6.40;99.90
8896;DHT22;4484;48.928;10.066;2022-12-18T16:45:21;-6.40;99.90
8896;DHT22;4484;48.928;10.066;2022-12-18T16:47:48;-6.40;99.90
8896;DHT22;4484;48.928;10.066;2022-12-18T16:50:15;-6.40;99.90
8896;DHT22;4484;48.928;10.066;2022-12-18T16:52:42;-6.40;99.90
8896;DHT22;4484;48.928;10.066;2022-12-18T16:55:10;-6.50;99.90
8896;DHT22;4484;48.928;10.066;2022-12-18T16:57:38;-6.50;99.90
8896;DHT22;4484;48.928;10.066;2022-12-18T17:00:05;-6.50;99.90
8896;DHT22;4484;48.928;10.066;2022-12-18T17:02:33;-6.50;99.90
8896;DHT22;4484;48.928;10.066;2022-12-18T17:05:00;-6.50;99.90
8896;DHT22;4484;48.928;10.066;2022-12-18T17:07:27;-6.50;99.90
8896;DHT22;4484;48.928;10.066;2022-12-18T17:09:54;-6.60;99.90
8896;DHT22;4484;48.928;10.066;2022-12-18T17:12:22;-6.60;99.90
8896;DHT22;4484;48.928;10.066;2022-12-18T17:14:49;-6.60;99.90
8896;DHT22;4484;48.928;10.066;2022-12-18T17:17:16;-6.60;99.90
8896;DHT22;4484;48.928;10.066;2022-12-18T17:19:49;-6.60;99.90
8896;DHT22;4484;48.928;10.066;2022-12-18T17:22:16;-6.60;99.90
8896;DHT22;4484;48.928;10.066;2022-12-18T17:24:43;-6.60;99.90
8896;DHT22;4484;48.928;10.066;2022-12-18T17:27:10;-6.60;99.90
8896;DHT22;4484;48.928;10.066;2022-12-18T17:29:37;-6.70;99.90
8896;DHT22;4484;48.928;10.066;2022-12-18T17:32:12;-6.60;99.90
8896;DHT22;4484;48.928;10.066;2022-12-18T17:34:39;-6.70;99.90
8896;DHT22;4484;48.928;10.066;2022-12-18T17:37:07;-6.70;99.90
8896;DHT22;4484;48.928;10.066;2022-12-18T17:39:33;-6.70;99.90
8896;DHT22;4484;48.928;10.066;2022-12-18T17:42:01;-6.70;99.90
8896;DHT22;4484;48.928;10.066;2022-12-18T17:44:28;-6.60;99.90
8896;DHT22;4484;48.928;10.066;2022-12-18T17:46:55;-6.60;99.90
8896;DHT22;4484;48.928;10.066;2022-12-18T17:49:22;-6.60;99.90
8896;DHT22;4484;48.928;10.066;2022-12-18T17:51:49;-6.50;99.90
8896;DHT22;4484;48.928;10.066;2022-12-18T17:54:17;-6.50;99.90
8896;DHT22;4484;48.928;10.066;2022-12-18T17:56:44;-6.50;99.90
8896;DHT22;4484;48.928;10.066;2022-12-18T17:59:11;-6.50;99.90
8896;DHT22;4484;48.928;10.066;2022-12-18T18:01:38;-6.50;99.90
8896;DHT22;4484;48.928;10.066;2022-12-18T18:04:11;-6.40;99.90
8896;DHT22;4484;48.928;10.066;2022-12-18T18:06:38;-6.40;99.90
8896;DHT22;4484;48.928;10.066;2022-12-18T18:09:06;-6.40;99.90
8896;DHT22;4484;48.928;10.066;2022-12-18T18:11:45;-6.30;99.90
8896;DHT22;4484;48.928;10.066;2022-12-18T18:14:31;-6.40;99.90
8896;DHT22;4484;48.928;10.066;2022-12-18T18:17:00;-6.30;99.90